sensor_id;sensor_type;location;lat;lon;timestamp;pressure;altitude;pressure_sealevel;temperature;humidity
35910;BME280;22004;49.120;-0.200;2023-04-27T00:00:06;101490.22;;;11.16;76.69
35910;BME280;22004;49.120;-0.200;2023-04-27T00:02:35;101494.94;;;11.38;76.11
35910;BME280;22004;49.120;-0.200;2023-04-27T00:05:01;101486.72;;;11.32;76.54
35910;BME280;22004;49.120;-0.200;2023-04-27T00:07:27;101489.91;;;11.19;76.65
35910;BME280;22004;49.120;-0.200;2023-04-27T00:09:52;101488.03;;;11.77;74.22
35910;BME280;22004;49.120;-0.200;2023-04-27T00:12:18;101497.25;;;11.01;77.47
35910;BME280;22004;49.120;-0.200;2023-04-27T00:14:43;101493.94;;;11.15;76.83
35910;BME280;22004;49.120;-0.200;2023-04-27T00:17:09;101484.19;;;11.06;76.62
35910;BME280;22004;49.120;-0.200;2023-04-27T00:19:34;101481.00;;;11.27;75.88
35910;BME280;22004;49.120;-0.200;2023-04-27T00:21:59;101489.72;;;11.04;77.09
35910;BME280;22004;49.120;-0.200;2023-04-27T00:24:25;101484.69;;;11.09;76.86
35910;BME280;22004;49.120;-0.200;2023-04-27T00:26:50;101493.41;;;11.03;76.81
35910;BME280;22004;49.120;-0.200;2023-04-27T00:29:15;101486.22;;;11.20;76.24
35910;BME280;22004;49.120;-0.200;2023-04-27T00:31:41;101486.53;;;11.33;75.71
35910;BME280;22004;49.120;-0.200;2023-04-27T00:34:06;101484.19;;;12.04;72.47
35910;BME280;22004;49.120;-0.200;2023-04-27T00:36:33;101485.34;;;12.09;72.38
35910;BME280;22004;49.120;-0.200;2023-04-27T00:38:58;101472.72;;;12.10;72.11
35910;BME280;22004;49.120;-0.200;2023-04-27T00:41:24;101474.13;;;11.65;73.25
35910;BME280;22004;49.120;-0.200;2023-04-27T00:43:49;101477.47;;;11.67;73.48
35910;BME280;22004;49.120;-0.200;2023-04-27T00:46:15;101473.94;;;11.50;74.44
35910;BME280;22004;49.120;-0.200;2023-04-27T00:48:41;101473.09;;;11.66;73.48
35910;BME280;22004;49.120;-0.200;2023-04-27T00:51:07;101468.56;;;11.18;75.28
35910;BME280;22004;49.120;-0.200;2023-04-27T00:53:35;101458.16;;;11.15;75.37
35910;BME280;22004;49.120;-0.200;2023-04-27T00:56:00;101454.78;;;11.37;75.01
35910;BME280;22004;49.120;-0.200;2023-04-27T00:58:25;101460.50;;;11.26;75.17
35910;BME280;22004;49.120;-0.200;2023-04-27T01:00:51;101462.19;;;11.10;75.11
35910;BME280;22004;49.120;-0.200;2023-04-27T01:03:16;101453.56;;;10.74;76.38
35910;BME280;22004;49.120;-0.200;2023-04-27T01:05:42;101451.72;;;10.75;76.52
35910;BME280;22004;49.120;-0.200;2023-04-27T01:08:08;101456.25;;;10.74;77.15
35910;BME280;22004;49.120;-0.200;2023-04-27T01:10:34;101446.22;;;11.17;75.23
35910;BME280;22004;49.120;-0.200;2023-04-27T01:12:59;101451.06;;;11.71;73.27
35910;BME280;22004;49.120;-0.200;2023-04-27T01:15:25;101444.47;;;11.98;72.04
35910;BME280;22004;49.120;-0.200;2023-04-27T01:18:01;101460.47;;;11.83;73.10
35910;BME280;22004;49.120;-0.200;2023-04-27T01:20:27;101457.78;;;11.91;71.79
35910;BME280;22004;49.120;-0.200;2023-04-27T01:22:56;101454.63;;;11.47;73.99
35910;BME280;22004;49.120;-0.200;2023-04-27T01:25:22;101457.81;;;11.50;73.43
35910;BME280;22004;49.120;-0.200;2023-04-27T01:27:48;101461.31;;;11.02;76.06
35910;BME280;22004;49.120;-0.200;2023-04-27T01:30:13;101457.97;;;11.16;75.12
35910;BME280;22004;49.120;-0.200;2023-04-27T01:32:39;101447.72;;;11.28;75.17
35910;BME280;22004;49.120;-0.200;2023-04-27T01:35:05;101449.59;;;11.35;74.66
35910;BME280;22004;49.120;-0.200;2023-04-27T01:37:31;101447.66;;;10.71;76.95
35910;BME280;22004;49.120;-0.200;2023-04-27T01:39:57;101452.66;;;10.57;77.03
35910;BME280;22004;49.120;-0.200;2023-04-27T01:42:22;101445.50;;;10.74;76.83
35910;BME280;22004;49.120;-0.200;2023-04-27T01:44:47;101443.38;;;10.44;78.03
35910;BME280;22004;49.120;-0.200;2023-04-27T01:47:16;101444.16;;;10.70;76.92
35910;BME280;22004;49.120;-0.200;2023-04-27T01:49:41;101445.13;;;10.61;77.17
35910;BME280;22004;49.120;-0.200;2023-04-27T01:52:07;101440.13;;;10.74;76.13
35910;BME280;22004;49.120;-0.200;2023-04-27T01:54:32;101446.72;;;10.38;77.63
35910;BME280;22004;49.120;-0.200;2023-04-27T01:56:57;101454.53;;;10.73;76.50
35910;BME280;22004;49.120;-0.200;2023-04-27T01:59:23;101461.06;;;10.54;77.32
35910;BME280;22004;49.120;-0.200;2023-04-27T02:01:48;101447.22;;;11.32;75.09
35910;BME280;22004;49.120;-0.200;2023-04-27T02:04:13;101452.88;;;11.78;73.02
35910;BME280;22004;49.120;-0.200;2023-04-27T02:06:39;101450.38;;;11.93;72.29
35910;BME280;22004;49.120;-0.200;2023-04-27T02:09:05;101452.09;;;11.70;72.80
35910;BME280;22004;49.120;-0.200;2023-04-27T02:11:31;101463.34;;;11.89;72.42
35910;BME280;22004;49.120;-0.200;2023-04-27T02:13:56;101461.66;;;11.72;72.49
35910;BME280;22004;49.120;-0.200;2023-04-27T02:16:21;101453.38;;;11.98;72.06
35910;BME280;22004;49.120;-0.200;2023-04-27T02:18:47;101458.63;;;11.92;72.03
35910;BME280;22004;49.120;-0.200;2023-04-27T02:21:13;101446.69;;;11.94;71.87
35910;BME280;22004;49.120;-0.200;2023-04-27T02:23:38;101449.91;;;11.57;73.46
35910;BME280;22004;49.120;-0.200;2023-04-27T02:26:04;101453.94;;;11.61;73.56
35910;BME280;22004;49.120;-0.200;2023-04-27T02:28:30;101450.72;;;11.90;72.06
35910;BME280;22004;49.120;-0.200;2023-04-27T02:30:56;101456.78;;;11.68;73.12
35910;BME280;22004;49.120;-0.200;2023-04-27T02:33:21;101449.91;;;11.89;71.96
35910;BME280;22004;49.120;-0.200;2023-04-27T02:35:47;101445.50;;;11.97;71.87
35910;BME280;22004;49.120;-0.200;2023-04-27T02:38:12;101444.34;;;11.91;72.07
35910;BME280;22004;49.120;-0.200;2023-04-27T02:40:37;101442.66;;;11.82;72.37
35910;BME280;22004;49.120;-0.200;2023-04-27T02:43:03;101448.88;;;11.90;71.99
35910;BME280;22004;49.120;-0.200;2023-04-27T02:45:28;101449.03;;;11.81;72.59
35910;BME280;22004;49.120;-0.200;2023-04-27T02:47:54;101444.81;;;11.78;72.26
35910;BME280;22004;49.120;-0.200;2023-04-27T02:50:19;101447.53;;;11.62;73.39
35910;BME280;22004;49.120;-0.200;2023-04-27T02:52:44;101449.41;;;11.70;72.83
35910;BME280;22004;49.120;-0.200;2023-04-27T02:55:10;101449.41;;;11.37;74.58
35910;BME280;22004;49.120;-0.200;2023-04-27T02:57:35;101439.78;;;11.83;72.67
35910;BME280;22004;49.120;-0.200;2023-04-27T03:00:02;101440.69;;;11.59;73.55
35910;BME280;22004;49.120;-0.200;2023-04-27T03:02:29;101431.00;;;10.51;77.38
35910;BME280;22004;49.120;-0.200;2023-04-27T03:04:54;101422.66;;;10.70;76.86
35910;BME280;22004;49.120;-0.200;2023-04-27T03:07:21;101432.16;;;10.48;77.89
35910;BME280;22004;49.120;-0.200;2023-04-27T03:09:46;101433.09;;;10.98;76.29
35910;BME280;22004;49.120;-0.200;2023-04-27T03:12:12;101432.44;;;11.61;73.60
35910;BME280;22004;49.120;-0.200;2023-04-27T03:14:37;101436.25;;;11.91;72.33
35910;BME280;22004;49.120;-0.200;2023-04-27T03:17:02;101434.97;;;11.46;74.03
35910;BME280;22004;49.120;-0.200;2023-04-27T03:19:28;101428.25;;;11.01;75.69
35910;BME280;22004;49.120;-0.200;2023-04-27T03:21:53;101429.44;;;11.39;74.36
35910;BME280;22004;49.120;-0.200;2023-04-27T03:24:19;101436.66;;;11.31;74.68
35910;BME280;22004;49.120;-0.200;2023-04-27T03:26:44;101443.88;;;11.06;75.27
35910;BME280;22004;49.120;-0.200;2023-04-27T03:29:09;101435.63;;;11.48;73.88
35910;BME280;22004;49.120;-0.200;2023-04-27T03:31:35;101432.25;;;11.79;72.84
35910;BME280;22004;49.120;-0.200;2023-04-27T03:34:00;101421.34;;;11.56;73.71
35910;BME280;22004;49.120;-0.200;2023-04-27T03:36:25;101429.78;;;11.20;74.93
35910;BME280;22004;49.120;-0.200;2023-04-27T03:38:51;101421.19;;;11.41;74.21
35910;BME280;22004;49.120;-0.200;2023-04-27T03:41:16;101424.09;;;12.11;71.69
35910;BME280;22004;49.120;-0.200;2023-04-27T03:43:42;101420.97;;;11.67;73.32
35910;BME280;22004;49.120;-0.200;2023-04-27T03:46:07;101427.59;;;11.40;74.32
35910;BME280;22004;49.120;-0.200;2023-04-27T03:48:32;101416.25;;;11.77;72.64
35910;BME280;22004;49.120;-0.200;2023-04-27T03:50:59;101413.28;;;11.64;73.58
35910;BME280;22004;49.120;-0.200;2023-04-27T03:53:24;101410.28;;;11.34;74.16
35910;BME280;22004;49.120;-0.200;2023-04-27T03:55:50;101413.19;;;11.97;71.88
35910;BME280;22004;49.120;-0.200;2023-04-27T03:58:15;101402.75;;;12.02;71.81
35910;BME280;22004;49.120;-0.200;2023-04-27T04:00:41;101403.66;;;11.86;72.17
35910;BME280;22004;49.120;-0.200;2023-04-27T04:03:07;101399.19;;;11.46;73.12
35910;BME280;22004;49.120;-0.200;2023-04-27T04:05:32;101401.16;;;11.60;73.39
35910;BME280;22004;49.120;-0.200;2023-04-27T04:07:58;101406.31;;;11.94;72.27
35910;BME280;22004;49.120;-0.200;2023-04-27T04:10:24;101412.16;;;12.06;71.31
35910;BME280;22004;49.120;-0.200;2023-04-27T04:12:50;101416.72;;;12.05;71.23
35910;BME280;22004;49.120;-0.200;2023-04-27T04:15:16;101412.69;;;12.01;71.43
35910;BME280;22004;49.120;-0.200;2023-04-27T04:17:41;101418.69;;;12.11;71.04
35910;BME280;22004;49.120;-0.200;2023-04-27T04:20:07;101402.53;;;10.99;73.90
35910;BME280;22004;49.120;-0.200;2023-04-27T04:22:34;101407.25;;;11.05;74.27
35910;BME280;22004;49.120;-0.200;2023-04-27T04:24:59;101406.38;;;11.53;73.77
35910;BME280;22004;49.120;-0.200;2023-04-27T04:27:25;101407.16;;;11.78;72.24
35910;BME280;22004;49.120;-0.200;2023-04-27T04:29:50;101407.78;;;12.05;71.46
35910;BME280;22004;49.120;-0.200;2023-04-27T04:32:15;101395.38;;;12.04;71.21
35910;BME280;22004;49.120;-0.200;2023-04-27T04:34:42;101392.66;;;12.04;71.26
35910;BME280;22004;49.120;-0.200;2023-04-27T04:37:08;101398.88;;;12.04;71.13
35910;BME280;22004;49.120;-0.200;2023-04-27T04:39:33;101399.72;;;12.05;70.63
35910;BME280;22004;49.120;-0.200;2023-04-27T04:41:58;101395.69;;;12.09;70.81
35910;BME280;22004;49.120;-0.200;2023-04-27T04:44:24;101400.88;;;12.10;71.05
35910;BME280;22004;49.120;-0.200;2023-04-27T04:46:49;101406.25;;;12.10;71.30
35910;BME280;22004;49.120;-0.200;2023-04-27T04:49:15;101399.66;;;11.57;71.47
35910;BME280;22004;49.120;-0.200;2023-04-27T04:51:41;101402.38;;;11.00;73.56
35910;BME280;22004;49.120;-0.200;2023-04-27T04:54:07;101393.28;;;10.69;74.98
35910;BME280;22004;49.120;-0.200;2023-04-27T04:56:32;101398.50;;;10.20;76.56
35910;BME280;22004;49.120;-0.200;2023-04-27T04:58:58;101392.50;;;10.26;77.55
35910;BME280;22004;49.120;-0.200;2023-04-27T05:01:23;101385.81;;;10.38;76.59
35910;BME280;22004;49.120;-0.200;2023-04-27T05:03:48;101386.16;;;10.43;76.02
35910;BME280;22004;49.120;-0.200;2023-04-27T05:06:14;101380.22;;;10.90;74.45
35910;BME280;22004;49.120;-0.200;2023-04-27T05:08:39;101389.97;;;11.16;73.91
35910;BME280;22004;49.120;-0.200;2023-04-27T05:11:05;101377.34;;;10.83;74.19
35910;BME280;22004;49.120;-0.200;2023-04-27T05:13:30;101376.03;;;10.96;74.45
35910;BME280;22004;49.120;-0.200;2023-04-27T05:15:56;101374.94;;;10.48;75.79
35910;BME280;22004;49.120;-0.200;2023-04-27T05:18:22;101375.94;;;11.69;72.62
35910;BME280;22004;49.120;-0.200;2023-04-27T05:20:48;101381.78;;;11.89;71.39
35910;BME280;22004;49.120;-0.200;2023-04-27T05:23:13;101378.78;;;11.84;71.45
35910;BME280;22004;49.120;-0.200;2023-04-27T05:25:38;101367.97;;;11.92;71.57
35910;BME280;22004;49.120;-0.200;2023-04-27T05:28:07;101375.28;;;12.14;70.62
35910;BME280;22004;49.120;-0.200;2023-04-27T05:30:33;101373.66;;;12.05;71.00
35910;BME280;22004;49.120;-0.200;2023-04-27T05:32:59;101368.19;;;11.66;72.30
35910;BME280;22004;49.120;-0.200;2023-04-27T05:35:24;101382.84;;;12.19;70.36
35910;BME280;22004;49.120;-0.200;2023-04-27T05:37:49;101380.38;;;12.01;70.34
35910;BME280;22004;49.120;-0.200;2023-04-27T05:40:15;101382.84;;;11.55;72.18
35910;BME280;22004;49.120;-0.200;2023-04-27T05:42:40;101385.44;;;12.04;70.35
35910;BME280;22004;49.120;-0.200;2023-04-27T05:45:06;101382.97;;;11.86;71.24
35910;BME280;22004;49.120;-0.200;2023-04-27T05:47:32;101377.59;;;11.70;71.93
35910;BME280;22004;49.120;-0.200;2023-04-27T05:49:57;101373.50;;;10.86;74.68
35910;BME280;22004;49.120;-0.200;2023-04-27T05:52:22;101365.59;;;10.60;75.28
35910;BME280;22004;49.120;-0.200;2023-04-27T05:54:53;101370.31;;;10.16;76.77
35910;BME280;22004;49.120;-0.200;2023-04-27T05:57:19;101379.81;;;10.52;76.82
35910;BME280;22004;49.120;-0.200;2023-04-27T05:59:44;101372.41;;;10.38;75.40
35910;BME280;22004;49.120;-0.200;2023-04-27T06:02:09;101359.19;;;10.02;77.19
35910;BME280;22004;49.120;-0.200;2023-04-27T06:04:35;101361.59;;;10.22;77.24
35910;BME280;22004;49.120;-0.200;2023-04-27T06:07:01;101362.69;;;10.37;76.53
35910;BME280;22004;49.120;-0.200;2023-04-27T06:09:31;101352.81;;;10.46;75.91
35910;BME280;22004;49.120;-0.200;2023-04-27T06:11:57;101347.97;;;10.66;76.16
35910;BME280;22004;49.120;-0.200;2023-04-27T06:14:27;101353.13;;;10.34;75.66
35910;BME280;22004;49.120;-0.200;2023-04-27T06:16:52;101357.34;;;11.27;73.36
35910;BME280;22004;49.120;-0.200;2023-04-27T06:19:17;101360.66;;;11.61;73.19
35910;BME280;22004;49.120;-0.200;2023-04-27T06:21:43;101363.28;;;11.94;71.28
35910;BME280;22004;49.120;-0.200;2023-04-27T06:24:08;101366.44;;;10.77;74.46
35910;BME280;22004;49.120;-0.200;2023-04-27T06:26:33;101361.75;;;11.20;73.57
35910;BME280;22004;49.120;-0.200;2023-04-27T06:28:59;101371.91;;;11.57;71.75
35910;BME280;22004;49.120;-0.200;2023-04-27T06:31:25;101381.91;;;11.16;73.40
35910;BME280;22004;49.120;-0.200;2023-04-27T06:33:50;101380.28;;;12.26;70.25
35910;BME280;22004;49.120;-0.200;2023-04-27T06:36:16;101381.00;;;12.20;71.40
35910;BME280;22004;49.120;-0.200;2023-04-27T06:38:41;101372.44;;;12.70;68.53
35910;BME280;22004;49.120;-0.200;2023-04-27T06:41:07;101370.97;;;14.17;63.74
35910;BME280;22004;49.120;-0.200;2023-04-27T06:43:32;101366.22;;;14.48;63.38
35910;BME280;22004;49.120;-0.200;2023-04-27T06:45:57;101361.63;;;13.54;65.32
35910;BME280;22004;49.120;-0.200;2023-04-27T06:48:23;101374.88;;;14.29;64.70
35910;BME280;22004;49.120;-0.200;2023-04-27T06:50:48;101371.44;;;12.94;67.22
35910;BME280;22004;49.120;-0.200;2023-04-27T06:53:13;101374.22;;;13.01;68.16
35910;BME280;22004;49.120;-0.200;2023-04-27T06:55:41;101379.56;;;13.09;68.90
35910;BME280;22004;49.120;-0.200;2023-04-27T06:58:07;101363.78;;;13.73;66.36
35910;BME280;22004;49.120;-0.200;2023-04-27T07:00:32;101359.59;;;13.85;66.33
35910;BME280;22004;49.120;-0.200;2023-04-27T07:02:58;101359.22;;;14.39;64.23
35910;BME280;22004;49.120;-0.200;2023-04-27T07:05:23;101352.34;;;14.22;64.82
35910;BME280;22004;49.120;-0.200;2023-04-27T07:07:48;101359.47;;;14.08;64.83
35910;BME280;22004;49.120;-0.200;2023-04-27T07:10:14;101371.44;;;14.20;65.03
35910;BME280;22004;49.120;-0.200;2023-04-27T07:12:40;101368.72;;;13.69;66.87
35910;BME280;22004;49.120;-0.200;2023-04-27T07:15:06;101378.97;;;14.76;64.69
35910;BME280;22004;49.120;-0.200;2023-04-27T07:17:32;101382.75;;;14.82;64.92
35910;BME280;22004;49.120;-0.200;2023-04-27T07:19:58;101378.81;;;15.55;61.83
35910;BME280;22004;49.120;-0.200;2023-04-27T07:22:23;101388.06;;;15.39;62.73
35910;BME280;22004;49.120;-0.200;2023-04-27T07:24:49;101388.66;;;15.63;61.95
35910;BME280;22004;49.120;-0.200;2023-04-27T07:27:15;101391.91;;;15.80;60.38
35910;BME280;22004;49.120;-0.200;2023-04-27T07:29:40;101386.53;;;15.30;62.98
35910;BME280;22004;49.120;-0.200;2023-04-27T07:32:07;101389.75;;;16.03;61.46
35910;BME280;22004;49.120;-0.200;2023-04-27T07:34:32;101387.56;;;15.85;60.81
35910;BME280;22004;49.120;-0.200;2023-04-27T07:36:58;101391.50;;;15.05;63.36
35910;BME280;22004;49.120;-0.200;2023-04-27T07:39:23;101385.63;;;16.14;61.18
35910;BME280;22004;49.120;-0.200;2023-04-27T07:41:49;101371.50;;;16.86;58.12
35910;BME280;22004;49.120;-0.200;2023-04-27T07:44:16;101376.28;;;16.23;60.94
35910;BME280;22004;49.120;-0.200;2023-04-27T07:46:41;101380.22;;;16.20;60.43
35910;BME280;22004;49.120;-0.200;2023-04-27T07:49:07;101378.63;;;14.64;63.71
35910;BME280;22004;49.120;-0.200;2023-04-27T07:51:33;101378.72;;;15.70;61.86
35910;BME280;22004;49.120;-0.200;2023-04-27T07:53:59;101379.16;;;16.08;60.83
35910;BME280;22004;49.120;-0.200;2023-04-27T07:56:24;101374.53;;;16.70;59.81
35910;BME280;22004;49.120;-0.200;2023-04-27T07:58:49;101371.28;;;16.88;59.29
35910;BME280;22004;49.120;-0.200;2023-04-27T08:01:15;101357.72;;;17.47;57.63
35910;BME280;22004;49.120;-0.200;2023-04-27T08:03:41;101362.25;;;17.60;56.74
35910;BME280;22004;49.120;-0.200;2023-04-27T08:06:06;101357.88;;;17.72;56.15
35910;BME280;22004;49.120;-0.200;2023-04-27T08:08:32;101350.75;;;17.85;56.58
35910;BME280;22004;49.120;-0.200;2023-04-27T08:10:57;101343.44;;;18.37;57.13
35910;BME280;22004;49.120;-0.200;2023-04-27T08:13:22;101332.81;;;17.64;57.20
35910;BME280;22004;49.120;-0.200;2023-04-27T08:15:49;101348.56;;;19.40;52.82
35910;BME280;22004;49.120;-0.200;2023-04-27T08:18:14;101350.91;;;19.36;55.61
35910;BME280;22004;49.120;-0.200;2023-04-27T08:20:42;101352.72;;;18.92;55.34
35910;BME280;22004;49.120;-0.200;2023-04-27T08:23:07;101360.72;;;18.49;55.10
35910;BME280;22004;49.120;-0.200;2023-04-27T08:25:35;101379.34;;;19.40;53.94
35910;BME280;22004;49.120;-0.200;2023-04-27T08:28:01;101371.50;;;19.50;52.80
35910;BME280;22004;49.120;-0.200;2023-04-27T08:30:26;101374.56;;;19.35;53.44
35910;BME280;22004;49.120;-0.200;2023-04-27T08:32:51;101367.72;;;19.01;53.69
35910;BME280;22004;49.120;-0.200;2023-04-27T08:35:18;101357.44;;;19.28;56.43
35910;BME280;22004;49.120;-0.200;2023-04-27T08:37:44;101356.59;;;19.09;55.55
35910;BME280;22004;49.120;-0.200;2023-04-27T08:40:09;101357.59;;;19.08;54.97
35910;BME280;22004;49.120;-0.200;2023-04-27T08:42:35;101347.72;;;18.89;56.86
35910;BME280;22004;49.120;-0.200;2023-04-27T08:45:01;101349.16;;;19.85;53.73
35910;BME280;22004;49.120;-0.200;2023-04-27T08:47:26;101351.28;;;19.65;54.23
35910;BME280;22004;49.120;-0.200;2023-04-27T08:49:52;101360.81;;;18.67;55.87
35910;BME280;22004;49.120;-0.200;2023-04-27T08:52:17;101359.31;;;18.78;56.26
35910;BME280;22004;49.120;-0.200;2023-04-27T08:54:43;101360.88;;;18.60;57.28
35910;BME280;22004;49.120;-0.200;2023-04-27T08:57:12;101354.63;;;18.92;57.69
35910;BME280;22004;49.120;-0.200;2023-04-27T08:59:38;101363.88;;;19.34;55.92
35910;BME280;22004;49.120;-0.200;2023-04-27T09:02:05;101342.13;;;19.96;53.88
35910;BME280;22004;49.120;-0.200;2023-04-27T09:04:39;101349.38;;;19.65;55.30
35910;BME280;22004;49.120;-0.200;2023-04-27T09:07:18;101340.06;;;20.09;55.43
35910;BME280;22004;49.120;-0.200;2023-04-27T09:09:43;101341.97;;;20.09;52.90
35910;BME280;22004;49.120;-0.200;2023-04-27T09:12:19;101336.78;;;18.64;55.82
35910;BME280;22004;49.120;-0.200;2023-04-27T09:15:05;101339.78;;;19.99;55.28
35910;BME280;22004;49.120;-0.200;2023-04-27T09:17:32;101329.91;;;19.98;56.54
35910;BME280;22004;49.120;-0.200;2023-04-27T09:20:08;101329.19;;;19.29;57.09
35910;BME280;22004;49.120;-0.200;2023-04-27T09:25:08;101319.47;;;17.75;62.10
35910;BME280;22004;49.120;-0.200;2023-04-27T09:27:37;101306.41;;;17.06;62.51
35910;BME280;22004;49.120;-0.200;2023-04-27T09:30:11;101310.50;;;16.42;64.89
35910;BME280;22004;49.120;-0.200;2023-04-27T09:32:37;101309.34;;;16.91;64.47
35910;BME280;22004;49.120;-0.200;2023-04-27T09:35:04;101301.81;;;16.73;62.58
35910;BME280;22004;49.120;-0.200;2023-04-27T09:37:38;101296.78;;;16.84;65.68
35910;BME280;22004;49.120;-0.200;2023-04-27T09:40:04;101287.19;;;16.74;65.27
35910;BME280;22004;49.120;-0.200;2023-04-27T09:42:30;101287.44;;;16.86;65.70
35910;BME280;22004;49.120;-0.200;2023-04-27T09:44:56;101282.59;;;16.95;66.45
35910;BME280;22004;49.120;-0.200;2023-04-27T09:47:23;101283.41;;;16.69;66.15
35910;BME280;22004;49.120;-0.200;2023-04-27T09:49:49;101272.13;;;16.65;67.03
35910;BME280;22004;49.120;-0.200;2023-04-27T09:52:15;101265.69;;;16.53;67.85
35910;BME280;22004;49.120;-0.200;2023-04-27T09:54:40;101267.75;;;16.38;67.41
35910;BME280;22004;49.120;-0.200;2023-04-27T10:02:25;101277.66;;;16.11;68.47
35910;BME280;22004;49.120;-0.200;2023-04-27T10:07:27;101275.56;;;16.06;69.96
35910;BME280;22004;49.120;-0.200;2023-04-27T10:09:53;101273.94;;;16.12;69.19
35910;BME280;22004;49.120;-0.200;2023-04-27T10:12:21;101281.00;;;16.06;69.85
35910;BME280;22004;49.120;-0.200;2023-04-27T10:14:57;101269.91;;;15.94;69.49
35910;BME280;22004;49.120;-0.200;2023-04-27T10:17:33;101270.59;;;16.03;69.06
35910;BME280;22004;49.120;-0.200;2023-04-27T10:20:00;101257.50;;;16.20;69.86
35910;BME280;22004;49.120;-0.200;2023-04-27T10:22:43;101258.13;;;16.28;68.35
35910;BME280;22004;49.120;-0.200;2023-04-27T10:25:16;101254.19;;;16.44;69.01
35910;BME280;22004;49.120;-0.200;2023-04-27T10:27:42;101249.00;;;16.43;68.38
35910;BME280;22004;49.120;-0.200;2023-04-27T10:30:15;101255.28;;;16.57;68.13
35910;BME280;22004;49.120;-0.200;2023-04-27T10:32:58;101248.38;;;16.47;68.10
35910;BME280;22004;49.120;-0.200;2023-04-27T10:35:38;101236.63;;;16.07;68.67
35910;BME280;22004;49.120;-0.200;2023-04-27T10:38:08;101220.78;;;16.11;68.43
35910;BME280;22004;49.120;-0.200;2023-04-27T10:40:35;101216.03;;;16.19;68.40
35910;BME280;22004;49.120;-0.200;2023-04-27T10:43:15;101208.75;;;16.40;67.71
35910;BME280;22004;49.120;-0.200;2023-04-27T10:45:42;101199.59;;;16.74;67.96
35910;BME280;22004;49.120;-0.200;2023-04-27T10:48:09;101204.75;;;17.09;67.78
35910;BME280;22004;49.120;-0.200;2023-04-27T10:50:36;101204.28;;;17.31;65.82
35910;BME280;22004;49.120;-0.200;2023-04-27T10:53:06;101205.78;;;17.72;65.66
35910;BME280;22004;49.120;-0.200;2023-04-27T10:55:33;101208.94;;;17.69;64.58
35910;BME280;22004;49.120;-0.200;2023-04-27T10:57:59;101205.13;;;18.22;64.53
35910;BME280;22004;49.120;-0.200;2023-04-27T11:00:33;101196.16;;;19.70;59.72
35910;BME280;22004;49.120;-0.200;2023-04-27T11:03:12;101195.75;;;19.48;60.60
35910;BME280;22004;49.120;-0.200;2023-04-27T11:05:38;101192.66;;;19.81;60.43
35910;BME280;22004;49.120;-0.200;2023-04-27T11:08:08;101195.25;;;19.21;59.59
35910;BME280;22004;49.120;-0.200;2023-04-27T11:10:34;101179.44;;;18.68;63.10
35910;BME280;22004;49.120;-0.200;2023-04-27T11:13:16;101187.28;;;18.82;62.07
35910;BME280;22004;49.120;-0.200;2023-04-27T11:15:49;101183.75;;;19.00;61.34
35910;BME280;22004;49.120;-0.200;2023-04-27T11:18:16;101176.47;;;18.51;62.40
35910;BME280;22004;49.120;-0.200;2023-04-27T11:20:43;101173.84;;;18.63;61.61
35910;BME280;22004;49.120;-0.200;2023-04-27T11:23:09;101167.13;;;19.08;60.05
35910;BME280;22004;49.120;-0.200;2023-04-27T11:25:36;101175.19;;;19.33;60.48
35910;BME280;22004;49.120;-0.200;2023-04-27T11:28:01;101167.22;;;19.20;58.98
35910;BME280;22004;49.120;-0.200;2023-04-27T11:30:28;101162.56;;;18.59;59.56
35910;BME280;22004;49.120;-0.200;2023-04-27T11:32:53;101165.00;;;18.17;60.11
35910;BME280;22004;49.120;-0.200;2023-04-27T11:35:19;101160.63;;;17.85;61.57
35910;BME280;22004;49.120;-0.200;2023-04-27T11:37:55;101170.88;;;17.82;62.73
35910;BME280;22004;49.120;-0.200;2023-04-27T11:40:22;101168.94;;;17.51;62.83
35910;BME280;22004;49.120;-0.200;2023-04-27T11:42:55;101169.78;;;17.45;63.59
35910;BME280;22004;49.120;-0.200;2023-04-27T11:45:24;101166.69;;;17.42;64.14
35910;BME280;22004;49.120;-0.200;2023-04-27T11:47:50;101165.06;;;17.72;63.89
35910;BME280;22004;49.120;-0.200;2023-04-27T11:50:15;101171.13;;;17.74;65.47
35910;BME280;22004;49.120;-0.200;2023-04-27T11:52:41;101172.59;;;17.70;65.78
35910;BME280;22004;49.120;-0.200;2023-04-27T11:55:07;101187.84;;;17.65;66.46
35910;BME280;22004;49.120;-0.200;2023-04-27T11:57:35;101181.38;;;17.21;65.89
35910;BME280;22004;49.120;-0.200;2023-04-27T12:00:02;101189.38;;;16.83;66.40
35910;BME280;22004;49.120;-0.200;2023-04-27T12:02:33;101185.41;;;16.78;66.51
35910;BME280;22004;49.120;-0.200;2023-04-27T12:04:58;101184.81;;;16.76;68.06
35910;BME280;22004;49.120;-0.200;2023-04-27T12:07:24;101185.19;;;16.67;68.83
35910;BME280;22004;49.120;-0.200;2023-04-27T12:09:49;101183.75;;;16.51;68.30
35910;BME280;22004;49.120;-0.200;2023-04-27T12:12:15;101177.06;;;16.34;68.18
35910;BME280;22004;49.120;-0.200;2023-04-27T12:14:45;101187.50;;;16.17;69.21
35910;BME280;22004;49.120;-0.200;2023-04-27T12:17:11;101192.88;;;16.10;69.19
35910;BME280;22004;49.120;-0.200;2023-04-27T12:19:36;101181.03;;;16.18;70.07
35910;BME280;22004;49.120;-0.200;2023-04-27T12:22:02;101186.84;;;16.01;70.91
35910;BME280;22004;49.120;-0.200;2023-04-27T12:24:28;101190.34;;;15.95;72.47
35910;BME280;22004;49.120;-0.200;2023-04-27T12:26:53;101195.75;;;15.82;73.16
35910;BME280;22004;49.120;-0.200;2023-04-27T12:29:18;101197.78;;;15.73;74.16
35910;BME280;22004;49.120;-0.200;2023-04-27T12:31:44;101191.34;;;15.81;73.12
35910;BME280;22004;49.120;-0.200;2023-04-27T12:34:10;101204.56;;;15.56;75.17
35910;BME280;22004;49.120;-0.200;2023-04-27T12:36:35;101203.25;;;15.39;75.92
35910;BME280;22004;49.120;-0.200;2023-04-27T12:41:38;101197.88;;;15.11;77.08
35910;BME280;22004;49.120;-0.200;2023-04-27T12:44:03;101195.00;;;15.12;78.83
35910;BME280;22004;49.120;-0.200;2023-04-27T12:46:29;101195.25;;;15.24;77.75
35910;BME280;22004;49.120;-0.200;2023-04-27T12:48:54;101183.06;;;15.41;75.90